createdAt,value
2022-11-03T00:02:03.223Z,3.84
2022-11-03T00:04:30.035Z,3.85
2022-11-03T00:06:57.076Z,3.66
2022-11-03T00:09:27.276Z,3.79
2022-11-03T00:11:54.410Z,3.71
2022-11-03T00:14:21.151Z,3.76
2022-11-03T00:16:48.286Z,3.82
2022-11-03T00:19:17.354Z,3.82
2022-11-03T00:21:45.286Z,3.86
2022-11-03T00:24:13.268Z,3.81
2022-11-03T00:26:40.224Z,3.61
2022-11-03T00:29:10.752Z,3.78
2022-11-03T00:31:40.615Z,3.88
2022-11-03T00:34:07.843Z,3.86
2022-11-03T00:36:40.857Z,3.83
2022-11-03T00:39:08.411Z,3.84
2022-11-03T00:41:35.619Z,3.72
2022-11-03T00:44:02.556Z,3.75
2022-11-03T00:46:30.637Z,3.65
2022-11-03T00:48:57.422Z,3.64
2022-11-03T00:51:27.713Z,3.60
2022-11-03T00:53:57.783Z,3.55
2022-11-03T00:56:31.253Z,3.59
2022-11-03T00:59:00.495Z,3.62
2022-11-03T01:01:42.195Z,3.70
2022-11-03T01:04:32.098Z,3.69
2022-11-03T01:07:00.774Z,3.54
2022-11-03T01:09:40.631Z,3.51
2022-11-03T01:12:19.243Z,3.48
2022-11-03T01:14:52.350Z,3.39
2022-11-03T01:17:28.340Z,3.50
2022-11-03T01:19:55.933Z,3.55
2022-11-03T01:22:24.418Z,3.48
2022-11-03T01:24:53.871Z,3.49
2022-11-03T01:27:23.194Z,3.40
2022-11-03T01:29:49.932Z,3.26
2022-11-03T01:32:16.679Z,3.35
2022-11-03T01:34:43.423Z,3.30
2022-11-03T01:37:10.191Z,3.36
2022-11-03T01:39:36.943Z,3.37
2022-11-03T01:42:03.862Z,3.41
2022-11-03T01:44:35.577Z,3.52
2022-11-03T01:47:24.660Z,3.44
2022-11-03T01:50:10.127Z,3.47
2022-11-03T01:52:58.939Z,3.52
2022-11-03T01:55:39.295Z,3.51
2022-11-03T01:58:16.604Z,3.46
2022-11-03T02:00:46.272Z,3.53
2022-11-03T02:03:14.141Z,3.23
2022-11-03T02:05:43.915Z,3.30
2022-11-03T02:08:23.186Z,3.34
2022-11-03T02:10:51.893Z,3.43
2022-11-03T02:13:22.863Z,3.38
2022-11-03T02:15:53.894Z,3.45
2022-11-03T02:18:26.691Z,3.48
2022-11-03T02:21:27.475Z,3.46
2022-11-03T02:24:12.647Z,3.35
2022-11-03T02:26:41.555Z,3.33
2022-11-03T02:29:08.251Z,3.32
2022-11-03T02:31:43.776Z,3.36
2022-11-03T02:34:21.304Z,3.30
2022-11-03T02:36:55.168Z,3.32
2022-11-03T02:39:30.515Z,3.34
2022-11-03T02:41:59.162Z,3.37
2022-11-03T02:44:27.163Z,3.27
2022-11-03T02:47:01.507Z,3.26
2022-11-03T02:49:28.407Z,3.24
2022-11-03T02:52:02.539Z,3.27
2022-11-03T02:54:36.461Z,3.33
2022-11-03T02:57:10.283Z,3.37
2022-11-03T02:59:46.887Z,3.36
2022-11-03T03:02:22.948Z,3.35
2022-11-03T03:04:56.600Z,3.45
2022-11-03T03:07:33.698Z,3.40
2022-11-03T03:10:10.737Z,3.42
2022-11-03T03:12:43.517Z,3.42
2022-11-03T03:15:10.459Z,3.45
2022-11-03T03:18:21.839Z,3.53
2022-11-03T03:21:01.947Z,3.55
2022-11-03T03:23:35.828Z,3.56
2022-11-03T03:26:11.263Z,3.60
2022-11-03T03:28:44.688Z,3.50
2022-11-03T03:31:15.080Z,3.63
2022-11-03T03:33:47.593Z,3.61
2022-11-03T03:36:18.080Z,3.62
2022-11-03T03:38:52.495Z,3.67
2022-11-03T03:41:22.916Z,3.50
2022-11-03T03:43:53.740Z,3.51
2022-11-03T03:46:23.456Z,3.43
2022-11-03T03:48:50.154Z,3.32
2022-11-03T03:51:22.471Z,3.29
2022-11-03T03:53:53.613Z,3.26
2022-11-03T03:56:57.853Z,3.16
2022-11-03T03:59:24.668Z,3.23
2022-11-03T04:01:51.438Z,3.25
2022-11-03T04:04:18.260Z,3.14
2022-11-03T04:06:46.322Z,3.07
2022-11-03T04:09:13.479Z,3.10
2022-11-03T04:11:58.701Z,3.14
2022-11-03T04:14:43.985Z,3.10
2022-11-03T04:17:39.651Z,3.20
2022-11-03T04:20:32.131Z,3.21
2022-11-03T04:22:58.922Z,3.24
2022-11-03T04:25:25.680Z,3.31
2022-11-03T04:27:52.399Z,3.25
2022-11-03T04:30:21.212Z,3.33
2022-11-03T04:32:50.102Z,3.24
2022-11-03T04:35:25.397Z,3.21
2022-11-03T04:37:59.110Z,3.19
2022-11-03T04:40:25.979Z,3.04
2022-11-03T04:42:53.093Z,3.02
2022-11-03T04:45:31.272Z,2.85
2022-11-03T04:48:02.148Z,2.94
2022-11-03T04:50:28.968Z,3.07
2022-11-03T04:52:59.005Z,3.04
2022-11-03T04:55:26.988Z,3.08
2022-11-03T04:58:11.256Z,2.99
2022-11-03T05:00:37.981Z,3.23
2022-11-03T05:03:04.863Z,3.27
2022-11-03T05:05:31.590Z,3.28
2022-11-03T05:07:59.206Z,3.25
2022-11-03T05:10:28.737Z,3.25
2022-11-03T05:12:56.671Z,3.27
2022-11-03T05:15:37.272Z,3.22
2022-11-03T05:18:30.250Z,3.22
2022-11-03T05:21:00.341Z,3.27
2022-11-03T05:23:30.556Z,3.25
2022-11-03T05:25:59.518Z,3.31
2022-11-03T05:28:48.127Z,3.27
2022-11-03T05:31:33.649Z,3.27
2022-11-03T05:34:33.302Z,3.27
2022-11-03T05:37:11.404Z,3.39
2022-11-03T05:39:43.962Z,3.36
2022-11-03T05:42:42.531Z,3.36
2022-11-03T05:45:31.635Z,3.37
2022-11-03T05:47:58.895Z,3.31
2022-11-03T05:50:29.147Z,3.28
2022-11-03T05:53:14.163Z,3.25
2022-11-03T05:55:41.172Z,3.28
2022-11-03T05:58:40.310Z,3.28
2022-11-03T06:01:33.018Z,3.33
2022-11-03T06:04:34.393Z,3.22
2022-11-03T06:07:21.005Z,3.22
2022-11-03T06:09:47.728Z,3.21
2022-11-03T06:12:19.770Z,3.27
2022-11-03T06:14:46.759Z,3.22
2022-11-03T06:17:25.560Z,3.22
2022-11-03T06:19:59.463Z,3.20
2022-11-03T06:22:38.438Z,3.06
2022-11-03T06:25:36.735Z,3.17
2022-11-03T06:28:24.969Z,3.18
2022-11-03T06:30:52.287Z,3.10
2022-11-03T06:33:48.048Z,3.18
2022-11-03T06:36:22.872Z,3.18
2022-11-03T06:39:27.563Z,3.18
2022-11-03T06:41:54.300Z,3.15
2022-11-03T06:44:25.140Z,3.14
2022-11-03T06:46:56.262Z,3.22
2022-11-03T06:49:36.131Z,3.25
2022-11-03T06:52:20.967Z,3.34
2022-11-03T06:54:49.836Z,3.33
2022-11-03T06:57:18.877Z,3.36
2022-11-03T06:59:46.148Z,3.28
2022-11-03T07:02:50.464Z,3.32
2022-11-03T07:05:30.773Z,3.33
2022-11-03T07:08:01.111Z,3.40
2022-11-03T07:10:31.528Z,3.36
2022-11-03T07:13:07.427Z,3.43
2022-11-03T07:15:40.169Z,3.62
2022-11-03T07:18:35.716Z,3.75
2022-11-03T07:21:36.195Z,3.72
2022-11-03T07:24:20.772Z,3.81
2022-11-03T07:26:47.827Z,3.84
2022-11-03T07:29:21.759Z,3.87
2022-11-03T07:31:49.904Z,3.89
2022-11-03T07:34:23.095Z,4.04
2022-11-03T07:36:55.329Z,4.11
2022-11-03T07:39:22.571Z,4.13
2022-11-03T07:41:50.431Z,4.21
2022-11-03T07:44:23.599Z,4.15
2022-11-03T07:46:50.996Z,4.20
2022-11-03T07:49:27.790Z,4.40
2022-11-03T07:51:56.737Z,4.43
2022-11-03T07:54:30.765Z,4.43
2022-11-03T07:57:05.393Z,4.58
2022-11-03T07:59:44.755Z,4.66
2022-11-03T08:02:30.905Z,4.69
2022-11-03T08:04:58.840Z,4.63
2022-11-03T08:07:27.985Z,4.81
2022-11-03T08:09:55.227Z,4.84
2022-11-03T08:12:22.366Z,4.88
2022-11-03T08:14:49.090Z,5.04
2022-11-03T08:17:15.989Z,5.11
2022-11-03T08:19:43.043Z,5.20
2022-11-03T08:22:09.841Z,5.20
2022-11-03T08:24:36.660Z,5.27
2022-11-03T08:27:04.623Z,5.30
2022-11-03T08:29:31.530Z,5.35
2022-11-03T08:31:58.285Z,5.42
2022-11-03T08:34:25.007Z,5.46
2022-11-03T08:36:51.788Z,5.49
2022-11-03T08:39:18.510Z,5.57
2022-11-03T08:41:45.202Z,5.64
2022-11-03T08:44:11.924Z,5.73
2022-11-03T08:46:38.698Z,5.82
2022-11-03T08:49:05.402Z,5.94
2022-11-03T08:51:32.612Z,5.95
2022-11-03T08:53:59.341Z,5.97
2022-11-03T08:56:26.069Z,5.98
2022-11-03T08:58:52.852Z,5.83
2022-11-03T09:01:19.698Z,6.21
2022-11-03T09:03:46.515Z,6.34
2022-11-03T09:06:13.263Z,6.45
2022-11-03T09:11:26.760Z,6.66
2022-11-03T09:13:53.638Z,6.76
2022-11-03T09:16:20.369Z,6.88
2022-11-03T09:18:47.222Z,6.96
2022-11-03T09:21:15.089Z,7.01
2022-11-03T09:23:42.138Z,7.15
2022-11-03T09:26:08.876Z,7.10
2022-11-03T09:28:35.598Z,7.23
2022-11-03T09:31:02.399Z,7.28
2022-11-03T09:33:29.181Z,7.36
2022-11-03T09:35:55.972Z,7.35
2022-11-03T09:38:22.674Z,7.37
2022-11-03T09:40:49.608Z,7.44
2022-11-03T09:43:16.384Z,7.50
2022-11-03T09:45:43.142Z,7.57
2022-11-03T09:48:13.266Z,7.69
2022-11-03T09:50:40.670Z,7.79
2022-11-03T09:53:12.901Z,7.84
2022-11-03T09:55:40.955Z,7.77
2022-11-03T09:58:15.322Z,7.93
2022-11-03T10:00:42.334Z,7.95
2022-11-03T10:03:13.552Z,8.00
2022-11-03T10:05:42.855Z,8.06
2022-11-03T10:08:30.802Z,8.11
2022-11-03T10:10:58.330Z,8.23
2022-11-03T10:13:36.305Z,8.31
2022-11-03T10:16:05.767Z,8.17
2022-11-03T10:18:34.435Z,8.36
2022-11-03T10:21:26.912Z,8.50
2022-11-03T10:23:53.690Z,8.53
2022-11-03T10:26:20.973Z,8.66
2022-11-03T10:29:09.918Z,8.68
2022-11-03T10:31:41.781Z,8.70
2022-11-03T10:34:39.493Z,8.88
2022-11-03T10:37:21.087Z,9.01
2022-11-03T10:39:50.097Z,9.05
2022-11-03T10:42:21.266Z,9.11
2022-11-03T10:44:52.283Z,9.33
2022-11-03T10:47:33.841Z,9.33
2022-11-03T10:50:17.703Z,9.43
2022-11-03T10:52:44.541Z,9.48
2022-11-03T10:55:11.381Z,9.65
2022-11-03T10:57:38.494Z,9.64
2022-11-03T11:00:09.507Z,9.76
2022-11-03T11:02:36.853Z,9.63
2022-11-03T11:05:19.553Z,9.79
2022-11-03T11:07:46.744Z,9.88
2022-11-03T11:10:26.955Z,9.92
2022-11-03T11:13:18.895Z,9.96
2022-11-03T11:15:48.599Z,9.94
2022-11-03T11:18:30.354Z,9.96
2022-11-03T11:20:58.378Z,9.84
2022-11-03T11:23:28.012Z,9.87
2022-11-03T11:26:09.596Z,9.88
2022-11-03T11:28:45.479Z,9.84
2022-11-03T11:31:28.383Z,9.79
2022-11-03T11:34:10.578Z,9.85
2022-11-03T11:36:39.724Z,9.84
2022-11-03T11:39:24.857Z,9.87
2022-11-03T11:42:15.088Z,9.75
2022-11-03T11:44:48.070Z,9.75
2022-11-03T11:47:43.923Z,9.81
2022-11-03T11:50:12.931Z,9.79
2022-11-03T11:53:11.955Z,9.81
2022-11-03T11:55:54.085Z,9.70
2022-11-03T11:58:25.740Z,9.67
2022-11-03T12:01:00.182Z,9.68
2022-11-03T12:03:32.694Z,9.66
2022-11-03T12:05:59.537Z,9.80
2022-11-03T12:08:30.004Z,9.83
2022-11-03T12:11:00.183Z,9.97
2022-11-03T12:13:45.002Z,9.97
2022-11-03T12:16:31.025Z,9.98
2022-11-03T12:19:18.359Z,10.06
2022-11-03T12:21:49.583Z,10.16
2022-11-03T12:24:47.607Z,10.19
2022-11-03T12:27:26.612Z,10.26
2022-11-03T12:29:59.547Z,10.23
2022-11-03T12:32:34.574Z,10.33
2022-11-03T12:35:08.525Z,10.46
2022-11-03T12:37:35.845Z,10.43
2022-11-03T12:40:02.720Z,10.42
2022-11-03T12:42:29.554Z,10.44
2022-11-03T12:44:56.326Z,10.55
2022-11-03T12:47:23.480Z,10.58
2022-11-03T12:49:50.389Z,10.54
2022-11-03T12:52:17.167Z,10.62
2022-11-03T12:54:44.212Z,10.80
2022-11-03T12:57:10.943Z,10.85
2022-11-03T12:59:37.770Z,10.86
2022-11-03T13:02:04.752Z,10.92
2022-11-03T13:04:31.591Z,10.91
2022-11-03T13:06:58.352Z,11.09
2022-11-03T13:09:25.148Z,11.10
2022-11-03T13:12:10.748Z,11.09
2022-11-03T13:14:37.478Z,11.05
2022-11-03T13:17:04.625Z,11.06
2022-11-03T13:19:31.439Z,11.10
2022-11-03T13:21:58.218Z,11.10
2022-11-03T13:24:25.052Z,11.10
2022-11-03T13:26:51.820Z,11.09
2022-11-03T13:29:18.520Z,11.10
2022-11-03T13:31:45.244Z,11.05
2022-11-03T13:34:12.191Z,11.05
2022-11-03T13:36:38.980Z,11.02
2022-11-03T13:39:05.696Z,11.05
2022-11-03T13:41:32.391Z,10.99
2022-11-03T13:43:59.112Z,10.99
2022-11-03T13:46:25.868Z,10.98
2022-11-03T13:49:43.879Z,10.96
2022-11-03T13:51:39.278Z,10.89
2022-11-03T13:59:39.690Z,10.97
2022-11-03T14:04:54.087Z,10.96
2022-11-03T14:07:20.927Z,10.89
2022-11-03T14:09:47.779Z,10.83
2022-11-03T14:12:32.653Z,10.72
2022-11-03T14:15:11.023Z,10.88
2022-11-03T14:17:39.717Z,10.81
2022-11-03T14:20:12.091Z,10.68
2022-11-03T14:22:40.483Z,10.70
2022-11-03T14:25:08.151Z,10.67
2022-11-03T14:27:34.969Z,10.67
2022-11-03T14:30:01.940Z,10.61
2022-11-03T14:32:28.716Z,10.60
2022-11-03T14:34:55.551Z,10.60
2022-11-03T14:37:25.365Z,10.58
2022-11-03T14:39:52.279Z,10.62
2022-11-03T14:42:19.018Z,10.60
2022-11-03T14:44:46.859Z,10.50
2022-11-03T14:47:21.821Z,10.59
2022-11-03T14:49:49.366Z,10.57
2022-11-03T14:52:17.603Z,10.60
2022-11-03T14:54:44.728Z,10.58
2022-11-03T14:57:11.648Z,10.36
2022-11-03T14:59:38.487Z,10.59
2022-11-03T15:02:06.354Z,10.53
2022-11-03T15:04:33.561Z,10.29
2022-11-03T15:07:00.540Z,10.45
2022-11-03T15:09:27.305Z,10.58
2022-11-03T15:11:54.145Z,10.59
2022-11-03T15:14:20.959Z,10.57
2022-11-03T15:16:48.258Z,10.47
2022-11-03T15:19:15.043Z,10.51
2022-11-03T15:21:41.860Z,10.50
2022-11-03T15:26:55.530Z,10.49
2022-11-03T15:29:24.230Z,10.16
2022-11-03T15:31:52.074Z,10.03
2022-11-03T15:34:18.910Z,10.21
2022-11-03T15:36:45.785Z,10.23
2022-11-03T15:39:13.600Z,10.19
2022-11-03T15:41:40.748Z,10.27
2022-11-03T15:44:07.496Z,10.33
2022-11-03T15:46:35.812Z,10.30
2022-11-03T15:49:03.031Z,10.28
2022-11-03T15:51:29.783Z,10.02
2022-11-03T15:53:58.909Z,10.18
2022-11-03T15:56:29.884Z,10.11
2022-11-03T15:58:56.780Z,9.82
2022-11-03T16:01:24.182Z,9.55
2022-11-03T16:03:51.248Z,9.57
2022-11-03T16:06:18.097Z,9.49
2022-11-03T16:08:45.223Z,9.48
2022-11-03T16:11:12.011Z,9.45
2022-11-03T16:13:39.543Z,9.48
2022-11-03T16:16:07.173Z,9.65
2022-11-03T16:18:34.781Z,9.57
2022-11-03T16:21:02.658Z,9.72
2022-11-03T16:23:29.399Z,9.50
2022-11-03T16:25:56.215Z,9.59
2022-11-03T16:28:23.405Z,9.53
2022-11-03T16:30:54.300Z,9.71
2022-11-03T16:33:21.938Z,9.73
2022-11-03T16:35:49.413Z,9.81
2022-11-03T16:38:16.424Z,9.86
2022-11-03T16:40:43.802Z,9.86
2022-11-03T16:43:12.554Z,9.90
2022-11-03T16:45:39.416Z,10.03
2022-11-03T16:48:07.385Z,9.98
2022-11-03T16:50:34.806Z,9.98
2022-11-03T16:53:01.676Z,9.93
2022-11-03T16:55:28.474Z,9.88
2022-11-03T16:57:55.290Z,9.88
2022-11-03T17:00:22.624Z,9.89
2022-11-03T17:02:49.342Z,9.91
2022-11-03T17:05:18.829Z,9.94
2022-11-03T17:07:51.811Z,9.99
2022-11-03T17:10:20.325Z,9.96
2022-11-03T17:12:47.067Z,9.97
2022-11-03T17:15:14.112Z,9.95
2022-11-03T17:17:41.566Z,9.96
2022-11-03T17:20:10.730Z,10.02
2022-11-03T17:22:37.839Z,9.95
2022-11-03T17:25:06.889Z,10.01
2022-11-03T17:27:46.488Z,10.00
2022-11-03T17:30:21.731Z,9.94
2022-11-03T17:32:51.036Z,9.92
2022-11-03T17:35:24.701Z,9.90
2022-11-03T17:37:52.739Z,9.95
2022-11-03T17:40:22.969Z,9.98
2022-11-03T17:42:50.771Z,9.96
2022-11-03T17:45:21.377Z,9.95
2022-11-03T17:47:49.721Z,9.89
2022-11-03T17:50:20.300Z,9.94
2022-11-03T17:52:48.872Z,9.92
2022-11-03T17:55:26.813Z,9.81
2022-11-03T17:57:55.330Z,9.94
2022-11-03T18:00:22.846Z,9.81
2022-11-03T18:02:53.134Z,9.81
2022-11-03T18:05:30.387Z,9.86
2022-11-03T18:08:05.824Z,9.76
2022-11-03T18:10:34.918Z,9.83
2022-11-03T18:13:30.031Z,9.74
2022-11-03T18:16:10.888Z,9.77
2022-11-03T18:18:43.655Z,9.64
2022-11-03T18:21:19.327Z,9.59
2022-11-03T18:23:48.894Z,9.53
2022-11-03T18:26:18.972Z,9.61
2022-11-03T18:28:45.948Z,9.61
2022-11-03T18:31:36.658Z,9.65
2022-11-03T18:34:07.031Z,9.65
2022-11-03T18:36:34.385Z,9.64
2022-11-03T18:39:02.264Z,9.67
2022-11-03T18:41:42.040Z,9.56
2022-11-03T18:44:30.971Z,9.52
2022-11-03T18:46:58.550Z,9.54
2022-11-03T18:49:27.512Z,9.50
2022-11-03T18:52:02.944Z,9.54
2022-11-03T18:54:32.224Z,9.58
2022-11-03T18:57:00.254Z,9.59
2022-11-03T18:59:37.630Z,9.57
2022-11-03T19:02:18.368Z,9.53
2022-11-03T19:04:45.971Z,9.49
2022-11-03T19:07:16.075Z,9.52
2022-11-03T19:09:44.176Z,9.52
2022-11-03T19:12:14.562Z,9.55
2022-11-03T19:14:45.166Z,9.52
2022-11-03T19:17:22.927Z,9.54
2022-11-03T19:19:52.061Z,9.51
2022-11-03T19:22:22.348Z,9.47
2022-11-03T19:24:49.417Z,9.45
2022-11-03T19:27:28.950Z,9.50
2022-11-03T19:29:57.698Z,9.52
2022-11-03T19:32:32.767Z,9.51
2022-11-03T19:35:06.524Z,9.51
2022-11-03T19:37:35.765Z,9.48
2022-11-03T19:40:06.133Z,9.45
2022-11-03T19:42:36.917Z,9.47
2022-11-03T19:45:14.336Z,9.48
2022-11-03T19:50:33.409Z,9.45
2022-11-03T19:53:03.769Z,9.52
2022-11-03T19:55:34.963Z,9.52
2022-11-03T19:58:24.995Z,9.51
2022-11-03T20:00:52.917Z,9.44
2022-11-03T20:03:20.301Z,9.52
2022-11-03T20:05:49.520Z,9.54
2022-11-03T20:08:21.757Z,9.45
2022-11-03T20:10:49.332Z,9.53
2022-11-03T20:13:19.968Z,9.52
2022-11-03T20:15:47.303Z,9.41
2022-11-03T20:18:15.358Z,9.38
2022-11-03T20:20:44.288Z,9.43
2022-11-03T20:23:28.851Z,9.40
2022-11-03T20:25:55.900Z,9.36
2022-11-03T20:28:27.628Z,9.46
2022-11-03T20:30:56.114Z,9.45
2022-11-03T20:33:25.016Z,9.46
2022-11-03T20:35:53.531Z,9.45
2022-11-03T20:38:21.154Z,9.47
2022-11-03T20:40:51.369Z,9.47
2022-11-03T20:43:35.299Z,9.51
2022-11-03T20:46:04.839Z,9.45
2022-11-03T20:48:31.556Z,9.45
2022-11-03T20:50:58.324Z,9.48
2022-11-03T20:53:25.861Z,9.47
2022-11-03T20:55:53.488Z,9.51
2022-11-03T20:58:20.364Z,9.49
2022-11-03T21:00:48.681Z,9.51
2022-11-03T21:03:57.628Z,9.48
2022-11-03T21:06:18.349Z,9.41
2022-11-03T21:08:47.366Z,9.39
2022-11-03T21:11:29.413Z,9.40
2022-11-03T21:14:33.100Z,9.43
2022-11-03T21:17:18.469Z,9.36
2022-11-03T21:20:07.988Z,9.40
2022-11-03T21:22:57.160Z,9.44
2022-11-03T21:25:24.902Z,9.52
2022-11-03T21:27:53.915Z,9.67
2022-11-03T21:30:21.929Z,9.81
2022-11-03T21:32:48.779Z,9.78
2022-11-03T21:35:19.552Z,9.87
2022-11-03T21:37:47.234Z,9.97
2022-11-03T21:40:15.300Z,10.04
2022-11-03T21:43:00.504Z,10.11
2022-11-03T21:45:27.295Z,10.14
2022-11-03T21:48:14.298Z,10.12
2022-11-03T21:50:42.405Z,10.19
2022-11-03T21:53:09.438Z,10.19
2022-11-03T21:55:36.767Z,10.28
2022-11-03T21:58:04.603Z,10.29
2022-11-03T22:00:32.464Z,10.37
2022-11-03T22:03:00.381Z,10.40
2022-11-03T22:05:27.653Z,10.43
2022-11-03T22:07:54.392Z,10.47
2022-11-03T22:10:21.236Z,10.48
2022-11-03T22:12:48.201Z,10.53
2022-11-03T22:15:33.400Z,10.55
2022-11-03T22:18:04.127Z,10.68
2022-11-03T22:20:49.608Z,10.61
2022-11-03T22:23:34.903Z,10.68
2022-11-03T22:26:20.620Z,10.69
2022-11-03T22:29:07.326Z,10.68
2022-11-03T22:31:43.028Z,10.41
2022-11-03T22:34:28.731Z,10.68
2022-11-03T22:36:55.735Z,10.71
2022-11-03T22:39:41.240Z,10.60
2022-11-03T22:42:30.370Z,10.55
2022-11-03T22:45:15.734Z,10.51
2022-11-03T22:47:42.496Z,10.46
2022-11-03T22:50:09.780Z,10.48
2022-11-03T22:52:36.608Z,10.52
2022-11-03T22:55:03.850Z,10.41
2022-11-03T22:57:30.603Z,10.34
2022-11-03T22:59:57.299Z,10.40
2022-11-03T23:02:24.125Z,10.46
2022-11-03T23:04:50.962Z,10.47
2022-11-03T23:07:17.719Z,10.27
2022-11-03T23:09:44.440Z,10.28
2022-11-03T23:12:11.503Z,10.23
2022-11-03T23:14:56.739Z,10.21
2022-11-03T23:17:43.464Z,10.14
2022-11-03T23:20:39.662Z,10.22
2022-11-03T23:23:06.628Z,10.13
2022-11-03T23:25:33.584Z,10.16
2022-11-03T23:28:00.297Z,10.15
2022-11-03T23:30:27.096Z,10.10
2022-11-03T23:32:53.814Z,10.08
2022-11-03T23:35:20.534Z,10.14
2022-11-03T23:37:47.279Z,10.11
2022-11-03T23:40:17.231Z,10.09
2022-11-03T23:42:47.163Z,10.14
2022-11-03T23:45:32.779Z,10.11
2022-11-03T23:48:18.158Z,10.06
2022-11-03T23:50:44.974Z,10.06
2022-11-03T23:53:11.690Z,9.98
2022-11-03T23:55:56.968Z,9.99
2022-11-03T23:58:23.697Z,9.92
